Time;durP1;ratioP1;P1;durP2;ratioP2;P2;SDS_P1;SDS_P2;PMS_P1;PMS_P2;Temp;Humidity;BMP_temperature;BMP_pressure;BME280_temperature;BME280_humidity;BME280_pressure;Samples;Min_cycle;Max_cycle;Signal;HPM_P1;HPM_P2
2023/08/27 00:00:37;;;;;;;4.30;3.90;;;25.70;59.80;;;;;;5031817;28;20280;-48
2023/08/27 00:03:03;;;;;;;4.30;3.10;;;25.70;59.50;;;;;;5027887;28;20452;-50
2023/08/27 00:05:29;;;;;;;4.13;3.73;;;25.80;59.70;;;;;;5016892;28;20437;-51
2023/08/27 00:07:54;;;;;;;8.30;4.43;;;25.80;59.60;;;;;;5022742;28;20615;-48
2023/08/27 00:10:20;;;;;;;5.97;4.00;;;25.90;59.10;;;;;;5027004;28;20205;-49
2023/08/27 00:12:46;;;;;;;7.10;3.90;;;25.90;58.60;;;;;;5032813;28;20562;-49
2023/08/27 00:15:12;;;;;;;2.87;2.67;;;25.80;58.50;;;;;;5021968;28;20222;-49
2023/08/27 00:17:37;;;;;;;4.73;4.33;;;25.80;59.30;;;;;;5022731;28;20472;-50
2023/08/27 00:20:06;;;;;;;3.40;3.03;;;25.90;59.30;;;;;;5019390;28;20202;-50
2023/08/27 00:22:32;;;;;;;5.30;3.30;;;25.80;59.30;;;;;;5031360;28;20238;-47
2023/08/27 00:24:58;;;;;;;5.50;4.07;;;25.90;59.10;;;;;;5030504;28;21002;-50
2023/08/27 00:27:23;;;;;;;5.30;4.80;;;25.90;59.10;;;;;;5029985;28;20194;-49
2023/08/27 00:29:49;;;;;;;5.90;4.60;;;25.90;58.70;;;;;;5023814;28;20222;-51
2023/08/27 00:32:14;;;;;;;5.03;3.27;;;25.90;58.70;;;;;;5032335;28;20661;-46
2023/08/27 00:34:40;;;;;;;4.07;2.90;;;25.90;58.90;;;;;;5028244;28;20268;-47
2023/08/27 00:37:06;;;;;;;4.30;3.57;;;25.90;59.00;;;;;;5032041;28;20205;-49
2023/08/27 00:39:32;;;;;;;5.17;3.37;;;25.80;58.80;;;;;;5027681;28;20832;-50
2023/08/27 00:41:57;;;;;;;4.20;3.37;;;25.70;59.20;;;;;;5029779;28;20197;-49
2023/08/27 00:44:23;;;;;;;6.40;3.23;;;25.70;59.30;;;;;;5031063;28;20200;-49
2023/08/27 00:46:49;;;;;;;6.10;3.93;;;25.80;59.30;;;;;;5031039;28;20193;-48
2023/08/27 00:49:16;;;;;;;6.37;3.40;;;25.90;59.10;;;;;;5033242;28;20192;-50
2023/08/27 00:51:44;;;;;;;4.27;3.20;;;25.90;59.00;;;;;;5033603;28;20431;-49
2023/08/27 00:54:11;;;;;;;3.20;3.00;;;25.90;58.80;;;;;;5033269;28;20537;-49
2023/08/27 00:56:36;;;;;;;2.50;2.30;;;25.90;58.80;;;;;;5025894;28;20519;-51
2023/08/27 00:59:02;;;;;;;3.57;3.07;;;26.00;58.80;;;;;;5021809;28;20528;-50
2023/08/27 01:01:29;;;;;;;4.63;4.33;;;26.00;58.80;;;;;;5027607;28;20195;-47
2023/08/27 01:03:54;;;;;;;3.37;3.03;;;26.00;58.50;;;;;;5021026;28;20650;-48
2023/08/27 01:06:20;;;;;;;5.00;3.00;;;26.00;58.90;;;;;;5028817;28;20471;-50
2023/08/27 01:08:45;;;;;;;2.80;2.60;;;26.00;58.70;;;;;;5025682;28;20211;-52
2023/08/27 01:11:28;;;;;;;3.67;3.40;;;26.00;58.80;;;;;;5032111;28;20229;-52
2023/08/27 01:14:00;;;;;;;3.90;3.17;;;26.10;58.50;;;;;;5023553;28;20570;-50
2023/08/27 01:16:27;;;;;;;3.60;2.60;;;26.10;58.40;;;;;;5026755;28;20436;-47
2023/08/27 01:18:54;;;;;;;4.93;2.57;;;26.00;58.50;;;;;;5019808;28;20823;-47
2023/08/27 01:21:23;;;;;;;3.53;3.07;;;26.00;58.50;;;;;;5017367;28;20499;-47
2023/08/27 01:23:49;;;;;;;6.00;3.03;;;26.00;58.40;;;;;;5029686;28;20436;-49
2023/08/27 01:26:27;;;;;;;4.13;3.40;;;26.00;58.40;;;;;;5027506;28;20796;-46
2023/08/27 01:29:24;;;;;;;3.60;3.30;;;26.00;58.50;;;;;;5019858;28;20656;-45
2023/08/27 01:32:25;;;;;;;7.03;3.90;;;26.00;58.50;;;;;;5016397;28;20448;-46
2023/08/27 01:34:53;;;;;;;4.13;3.73;;;26.10;58.40;;;;;;5027088;28;20483;-46
2023/08/27 01:37:19;;;;;;;4.33;3.87;;;26.00;58.40;;;;;;5027289;28;20480;-47
2023/08/27 01:39:44;;;;;;;3.10;2.80;;;26.00;58.30;;;;;;5023831;28;20444;-47
2023/08/27 01:42:17;;;;;;;4.43;2.70;;;26.00;58.30;;;;;;5023862;28;20432;-47
2023/08/27 01:44:42;;;;;;;5.87;3.93;;;26.00;58.50;;;;;;5027519;28;20197;-47
2023/08/27 01:47:08;;;;;;;8.60;5.40;;;26.10;58.40;;;;;;5024368;28;20448;-46
2023/08/27 01:49:34;;;;;;;5.30;4.43;;;26.00;58.10;;;;;;5025922;28;20204;-50
2023/08/27 01:51:59;;;;;;;6.03;4.20;;;25.90;57.80;;;;;;5026458;28;20207;-46
2023/08/27 01:54:25;;;;;;;3.87;3.53;;;25.90;57.90;;;;;;5020975;28;20668;-47
2023/08/27 01:56:50;;;;;;;4.23;3.93;;;25.80;58.30;;;;;;5027277;28;20193;-47
2023/08/27 01:59:16;;;;;;;3.00;2.80;;;25.70;58.90;;;;;;5020162;28;20283;-45
2023/08/27 02:01:43;;;;;;;5.10;3.60;;;25.70;59.20;;;;;;5025469;28;20193;-51
2023/08/27 02:04:09;;;;;;;6.77;3.67;;;25.80;58.80;;;;;;5019638;28;20619;-46
2023/08/27 02:06:34;;;;;;;3.40;3.10;;;25.80;59.00;;;;;;5023064;28;20593;-49
2023/08/27 02:09:00;;;;;;;6.00;3.33;;;25.80;59.40;;;;;;5020099;28;20650;-50
2023/08/27 02:11:25;;;;;;;4.60;3.60;;;25.80;58.90;;;;;;5027459;28;20277;-47
2023/08/27 02:13:51;;;;;;;7.17;2.80;;;25.80;59.00;;;;;;5023029;28;20262;-47
2023/08/27 02:16:16;;;;;;;3.27;2.60;;;25.90;59.00;;;;;;5029552;28;20205;-48
2023/08/27 02:18:42;;;;;;;3.93;2.80;;;25.90;58.80;;;;;;5026958;28;20276;-46
2023/08/27 02:21:08;;;;;;;3.97;2.87;;;26.00;58.70;;;;;;5029375;28;20193;-47
2023/08/27 02:23:33;;;;;;;3.63;2.70;;;26.00;58.70;;;;;;5021058;28;20233;-49
2023/08/27 02:25:59;;;;;;;4.27;3.87;;;26.00;58.60;;;;;;5032059;28;20893;-49
2023/08/27 02:28:26;;;;;;;3.20;2.63;;;26.00;58.50;;;;;;5027150;28;20193;-51
2023/08/27 02:30:54;;;;;;;3.43;2.80;;;26.00;58.50;;;;;;5030951;28;20202;-50
2023/08/27 02:33:20;;;;;;;2.93;2.60;;;26.00;59.20;;;;;;5029290;28;20457;-47
2023/08/27 02:35:45;;;;;;;6.20;2.77;;;26.10;58.60;;;;;;5028395;28;20976;-46
2023/08/27 02:38:12;;;;;;;6.07;4.47;;;26.10;58.50;;;;;;5030264;28;20198;-46
2023/08/27 02:40:39;;;;;;;4.00;2.57;;;26.10;58.10;;;;;;5031274;28;20201;-48
2023/08/27 02:43:05;;;;;;;5.03;2.97;;;26.10;58.20;;;;;;5037569;28;21022;-49
2023/08/27 02:45:30;;;;;;;3.43;2.83;;;26.10;58.20;;;;;;5023452;28;20535;-50
2023/08/27 02:47:56;;;;;;;2.87;2.67;;;26.10;58.20;;;;;;5017883;28;20228;-53
2023/08/27 02:50:21;;;;;;;4.30;3.90;;;26.10;58.20;;;;;;5024185;28;20328;-49
2023/08/27 02:52:47;;;;;;;3.37;3.00;;;26.10;58.20;;;;;;5027072;28;20206;-47
2023/08/27 02:55:12;;;;;;;5.30;3.13;;;26.10;58.20;;;;;;5025801;28;20228;-50
2023/08/27 02:57:38;;;;;;;3.60;2.30;;;26.10;58.30;;;;;;5024010;28;20684;-50
2023/08/27 03:00:05;;;;;;;2.73;2.50;;;26.10;58.40;;;;;;5027299;28;20551;-50
2023/08/27 03:02:30;;;;;;;3.23;2.60;;;26.00;58.50;;;;;;5019270;28;20220;-51
2023/08/27 03:05:01;;;;;;;3.00;2.70;;;26.00;58.50;;;;;;5026368;28;20541;-46
2023/08/27 03:07:26;;;;;;;3.77;2.97;;;26.00;58.40;;;;;;5027229;28;20190;-51
2023/08/27 03:09:52;;;;;;;7.90;2.80;;;26.10;58.40;;;;;;5030843;28;20935;-48
2023/08/27 03:12:17;;;;;;;4.27;3.20;;;26.10;58.30;;;;;;5026242;28;20186;-45
2023/08/27 03:14:43;;;;;;;5.60;3.37;;;26.10;58.20;;;;;;5029811;28;20225;-46
2023/08/27 03:17:09;;;;;;;5.30;2.43;;;26.10;58.20;;;;;;5021524;28;20335;-51
2023/08/27 03:19:35;;;;;;;5.10;2.30;;;26.10;58.20;;;;;;5024896;28;20311;-52
2023/08/27 03:22:00;;;;;;;3.53;3.23;;;26.10;58.20;;;;;;5030511;28;20268;-46
2023/08/27 03:24:26;;;;;;;4.40;2.70;;;26.10;58.30;;;;;;5033814;28;20197;-46
2023/08/27 03:26:52;;;;;;;3.50;2.90;;;26.10;58.30;;;;;;5031609;28;20190;-46
2023/08/27 03:29:18;;;;;;;3.47;2.63;;;26.10;58.20;;;;;;5031104;28;20194;-50
2023/08/27 03:31:43;;;;;;;3.07;2.70;;;26.10;58.20;;;;;;5028832;28;20425;-47
2023/08/27 03:34:09;;;;;;;3.00;2.40;;;26.10;58.00;;;;;;5033276;28;20271;-45
2023/08/27 03:36:35;;;;;;;3.80;2.50;;;26.00;58.20;;;;;;5031071;28;20271;-51
2023/08/27 03:39:01;;;;;;;2.53;2.43;;;26.00;58.50;;;;;;5020293;28;20205;-50
2023/08/27 03:41:26;;;;;;;5.63;4.13;;;26.00;58.30;;;;;;5023611;28;20208;-49
2023/08/27 03:43:52;;;;;;;3.27;3.07;;;26.00;58.10;;;;;;5031902;28;20935;-47
2023/08/27 03:46:18;;;;;;;3.03;2.80;;;26.00;58.20;;;;;;5030918;28;20244;-48
2023/08/27 03:48:43;;;;;;;2.93;2.57;;;26.00;58.30;;;;;;5028827;28;20359;-50
2023/08/27 03:51:09;;;;;;;3.17;2.97;;;26.00;58.40;;;;;;5021789;28;20190;-48
2023/08/27 03:53:36;;;;;;;3.40;3.10;;;25.90;58.50;;;;;;5022353;28;20206;-46
2023/08/27 03:56:03;;;;;;;2.97;2.60;;;25.90;58.60;;;;;;5022050;28;20581;-49
2023/08/27 03:58:29;;;;;;;6.07;2.60;;;25.90;58.60;;;;;;5034484;28;20445;-46
2023/08/27 04:00:54;;;;;;;3.60;3.30;;;26.00;58.80;;;;;;5026331;28;20452;-46
2023/08/27 04:03:20;;;;;;;3.43;3.13;;;26.00;58.70;;;;;;5031008;28;20272;-50
2023/08/27 04:05:49;;;;;;;3.70;3.40;;;26.00;58.60;;;;;;5025819;28;20208;-50
2023/08/27 04:08:15;;;;;;;3.60;3.30;;;26.00;58.40;;;;;;5016151;28;20202;-48
2023/08/27 04:10:48;;;;;;;3.27;3.07;;;26.00;58.30;;;;;;5024867;28;20441;-48
2023/08/27 04:13:14;;;;;;;3.27;2.87;;;25.90;58.40;;;;;;5019781;28;20437;-52
2023/08/27 04:15:40;;;;;;;4.30;4.00;;;25.90;58.60;;;;;;5020023;28;20487;-49
2023/08/27 04:18:05;;;;;;;4.33;3.83;;;25.90;58.70;;;;;;5031343;28;20234;-46
2023/08/27 04:20:31;;;;;;;4.70;4.00;;;25.80;58.80;;;;;;5033775;28;20820;-48
2023/08/27 04:22:56;;;;;;;3.63;3.10;;;25.70;58.60;;;;;;5024962;28;20783;-46
2023/08/27 04:25:22;;;;;;;3.40;3.10;;;25.70;59.00;;;;;;5032806;28;20202;-48
2023/08/27 04:27:48;;;;;;;6.40;3.13;;;25.80;59.20;;;;;;5024624;28;20243;-48
2023/08/27 04:30:13;;;;;;;3.50;3.20;;;25.70;58.80;;;;;;5028845;28;20669;-47
2023/08/27 04:32:39;;;;;;;2.90;2.70;;;25.70;59.10;;;;;;5025186;28;20209;-48
2023/08/27 04:35:05;;;;;;;3.30;2.90;;;25.70;59.10;;;;;;5024437;28;20221;-47
2023/08/27 04:37:31;;;;;;;3.30;2.40;;;25.80;59.20;;;;;;5031891;28;20198;-47
2023/08/27 04:39:56;;;;;;;3.00;2.80;;;25.80;59.40;;;;;;5026663;28;20225;-46
2023/08/27 04:42:22;;;;;;;5.47;4.97;;;25.80;59.20;;;;;;5029339;28;20247;-49
2023/08/27 04:44:47;;;;;;;4.83;3.63;;;25.80;58.70;;;;;;5019442;28;20661;-48
2023/08/27 04:47:13;;;;;;;4.30;3.90;;;25.70;58.80;;;;;;5026767;28;20193;-50
2023/08/27 04:49:40;;;;;;;3.77;3.50;;;25.60;59.30;;;;;;5032222;28;20255;-50
2023/08/27 04:52:05;;;;;;;3.60;3.20;;;25.50;59.30;;;;;;5028757;28;20871;-52
2023/08/27 04:54:31;;;;;;;8.20;3.57;;;25.30;60.60;;;;;;5030686;28;20576;-47
2023/08/27 04:56:56;;;;;;;3.50;3.20;;;25.10;61.70;;;;;;5026904;28;20193;-50
2023/08/27 04:59:22;;;;;;;3.87;3.17;;;25.00;61.90;;;;;;5026801;28;20249;-48
2023/08/27 05:01:48;;;;;;;3.00;2.80;;;25.10;61.80;;;;;;5019256;28;20205;-47
2023/08/27 05:04:13;;;;;;;3.13;2.93;;;25.00;60.90;;;;;;5027065;28;20189;-46
2023/08/27 05:06:39;;;;;;;3.60;2.87;;;25.10;61.30;;;;;;5029967;28;20197;-48
2023/08/27 05:09:05;;;;;;;2.97;2.63;;;25.20;61.30;;;;;;5026443;28;20224;-48
2023/08/27 05:11:30;;;;;;;5.33;4.03;;;25.40;61.00;;;;;;5031052;28;20229;-46
2023/08/27 05:13:56;;;;;;;3.83;3.53;;;25.40;60.70;;;;;;5029564;28;20190;-46
2023/08/27 05:16:21;;;;;;;2.80;2.60;;;25.50;60.20;;;;;;5024068;28;20637;-47
2023/08/27 05:18:47;;;;;;;4.73;2.97;;;25.50;60.50;;;;;;5029643;28;20189;-48
2023/08/27 05:21:12;;;;;;;4.73;3.87;;;25.60;60.40;;;;;;5026202;28;20197;-47
2023/08/27 05:23:38;;;;;;;3.50;3.17;;;25.60;60.90;;;;;;5029747;28;20665;-49
2023/08/27 05:26:04;;;;;;;2.60;2.40;;;25.70;59.90;;;;;;5025307;28;20204;-51
2023/08/27 05:28:29;;;;;;;3.87;3.57;;;25.70;59.90;;;;;;5022094;28;20194;-49
2023/08/27 05:30:55;;;;;;;3.63;2.97;;;25.70;59.80;;;;;;5024827;28;20196;-48
2023/08/27 05:33:21;;;;;;;3.83;3.53;;;25.70;59.70;;;;;;5028362;28;20189;-49
2023/08/27 05:35:46;;;;;;;5.40;3.10;;;25.70;59.80;;;;;;5026248;28;20279;-48
2023/08/27 05:38:12;;;;;;;4.03;2.73;;;25.80;59.80;;;;;;5032594;28;20534;-48
2023/08/27 05:40:37;;;;;;;7.00;3.37;;;25.70;59.80;;;;;;5022788;28;20193;-52
2023/08/27 05:43:03;;;;;;;15.60;3.77;;;25.80;59.80;;;;;;5031993;28;20284;-47
2023/08/27 05:45:29;;;;;;;4.40;2.97;;;25.90;59.80;;;;;;5026802;28;20185;-50
2023/08/27 05:47:54;;;;;;;6.37;4.53;;;25.90;59.60;;;;;;5028226;28;20221;-48
2023/08/27 05:50:20;;;;;;;5.67;4.27;;;25.90;59.40;;;;;;5027217;28;20200;-48
2023/08/27 05:52:45;;;;;;;7.43;4.73;;;25.90;59.00;;;;;;5036716;28;20657;-48
2023/08/27 05:55:11;;;;;;;5.57;3.90;;;25.90;59.00;;;;;;5026136;28;20326;-48
2023/08/27 05:57:36;;;;;;;6.43;4.00;;;26.00;59.00;;;;;;5034344;28;20237;-48
2023/08/27 06:00:02;;;;;;;5.03;4.63;;;25.90;58.90;;;;;;5032677;28;20186;-46
2023/08/27 06:02:28;;;;;;;5.43;4.60;;;25.90;58.80;;;;;;5029367;28;20567;-52
2023/08/27 06:04:54;;;;;;;5.20;4.70;;;25.90;59.00;;;;;;5020251;28;20443;-53
2023/08/27 06:07:19;;;;;;;5.00;4.60;;;25.90;59.10;;;;;;5040930;28;20665;-46
2023/08/27 06:09:45;;;;;;;5.43;5.03;;;25.70;59.10;;;;;;5028498;28;20205;-47
2023/08/27 06:12:10;;;;;;;4.87;4.50;;;25.60;59.30;;;;;;5036810;28;20189;-50
2023/08/27 06:14:36;;;;;;;4.47;4.17;;;25.50;59.70;;;;;;5037189;28;20330;-49
2023/08/27 06:17:02;;;;;;;5.77;4.67;;;25.40;60.30;;;;;;5026573;28;20196;-47
2023/08/27 06:19:27;;;;;;;5.63;5.13;;;25.20;60.60;;;;;;5025266;28;20290;-47
2023/08/27 06:21:53;;;;;;;6.07;5.47;;;25.20;61.00;;;;;;5027374;28;20255;-50
2023/08/27 06:24:18;;;;;;;5.10;4.60;;;25.10;61.80;;;;;;5029556;28;20224;-50
2023/08/27 06:26:44;;;;;;;6.17;5.57;;;25.00;62.20;;;;;;5022209;28;20304;-51
2023/08/27 06:29:10;;;;;;;6.00;5.50;;;24.90;62.70;;;;;;5038567;28;20202;-50
2023/08/27 06:31:35;;;;;;;6.87;5.90;;;24.80;63.40;;;;;;5027792;28;20209;-47
2023/08/27 06:34:01;;;;;;;8.83;7.30;;;24.70;64.00;;;;;;5023395;28;20189;-47
2023/08/27 06:36:26;;;;;;;8.27;7.40;;;24.60;64.60;;;;;;5028974;28;20918;-51
2023/08/27 06:38:52;;;;;;;7.13;6.53;;;24.60;64.90;;;;;;5028270;28;20315;-51
2023/08/27 06:41:17;;;;;;;6.70;6.10;;;24.50;65.40;;;;;;5022220;28;20205;-51
2023/08/27 06:43:43;;;;;;;13.83;6.47;;;24.50;66.00;;;;;;5024412;28;20340;-52
2023/08/27 06:46:11;;;;;;;5.93;5.43;;;24.40;66.20;;;;;;5030177;28;20220;-48
2023/08/27 06:48:37;;;;;;;7.43;6.73;;;24.20;66.50;;;;;;5033675;28;20284;-47
2023/08/27 06:51:03;;;;;;;4.70;4.40;;;23.60;69.30;;;;;;5027772;28;20569;-50
2023/08/27 06:53:28;;;;;;;6.07;5.57;;;23.40;71.60;;;;;;5029712;28;20266;-46
2023/08/27 06:55:54;;;;;;;7.30;5.00;;;23.40;71.70;;;;;;5045897;28;20216;-47
2023/08/27 06:58:19;;;;;;;6.17;5.67;;;23.40;71.50;;;;;;5027655;28;20196;-47
2023/08/27 07:00:45;;;;;;;5.83;5.33;;;23.00;72.30;;;;;;5026303;28;20676;-47
2023/08/27 07:03:11;;;;;;;5.50;5.00;;;22.90;74.30;;;;;;5032938;28;21284;-49
2023/08/27 07:05:36;;;;;;;6.10;5.43;;;23.00;74.10;;;;;;5017536;28;20203;-48
2023/08/27 07:08:04;;;;;;;4.93;4.53;;;23.20;73.20;;;;;;5012872;28;20641;-53
2023/08/27 07:10:29;;;;;;;4.20;3.80;;;23.50;72.20;;;;;;5032112;28;20703;-47
2023/08/27 07:12:55;;;;;;;4.50;3.77;;;23.40;70.30;;;;;;5022172;28;20534;-46
2023/08/27 07:15:20;;;;;;;4.23;3.93;;;23.40;70.00;;;;;;5025702;28;20228;-49
2023/08/27 07:17:46;;;;;;;6.70;4.00;;;23.40;69.60;;;;;;5016757;28;20197;-48
2023/08/27 07:20:13;;;;;;;4.10;3.70;;;23.20;70.50;;;;;;5022057;28;20225;-47
2023/08/27 07:22:39;;;;;;;6.17;3.67;;;23.20;71.30;;;;;;5025879;28;20259;-47
2023/08/27 07:25:05;;;;;;;3.90;2.70;;;23.40;70.80;;;;;;5029428;28;20478;-46
2023/08/27 07:27:33;;;;;;;3.17;2.87;;;23.50;70.00;;;;;;5028974;28;20198;-46
2023/08/27 07:29:58;;;;;;;2.90;2.70;;;23.60;69.20;;;;;;5030057;28;20456;-46
2023/08/27 07:32:24;;;;;;;2.30;2.10;;;23.80;68.70;;;;;;5023750;28;20459;-51
2023/08/27 07:34:49;;;;;;;2.30;2.10;;;23.80;68.10;;;;;;5019596;28;20255;-46
2023/08/27 07:37:15;;;;;;;6.47;2.40;;;23.90;67.80;;;;;;5027979;28;20265;-46
2023/08/27 07:39:40;;;;;;;3.50;2.33;;;23.80;67.10;;;;;;5026732;28;20209;-46
2023/08/27 07:42:07;;;;;;;2.73;2.00;;;23.80;67.50;;;;;;5025980;28;20653;-48
2023/08/27 07:44:32;;;;;;;2.67;2.47;;;23.80;67.20;;;;;;5040671;28;20218;-47
2023/08/27 07:46:58;;;;;;;5.13;2.13;;;23.80;67.20;;;;;;5029196;28;22872;-48
2023/08/27 07:49:24;;;;;;;1.90;1.80;;;23.80;66.70;;;;;;5022869;28;20194;-46
2023/08/27 07:51:49;;;;;;;3.00;2.23;;;23.70;67.90;;;;;;5026196;28;20193;-47
2023/08/27 07:54:15;;;;;;;3.27;2.10;;;23.60;67.80;;;;;;5018309;28;20635;-50
2023/08/27 07:56:40;;;;;;;2.30;2.10;;;23.60;68.30;;;;;;5021199;28;20205;-49
2023/08/27 07:59:06;;;;;;;4.63;1.90;;;23.80;67.80;;;;;;5025209;28;20198;-49
2023/08/27 08:01:31;;;;;;;2.80;1.47;;;23.80;67.10;;;;;;5025615;28;20204;-47
2023/08/27 08:03:57;;;;;;;1.93;1.57;;;23.80;65.90;;;;;;5019309;28;20534;-48
2023/08/27 08:06:23;;;;;;;2.07;1.80;;;23.90;66.00;;;;;;5032583;28;20189;-49
2023/08/27 08:08:48;;;;;;;2.93;1.60;;;23.90;65.90;;;;;;5030869;28;20191;-46
2023/08/27 08:11:14;;;;;;;6.47;2.00;;;24.00;66.00;;;;;;5034046;28;20190;-46
2023/08/27 08:13:41;;;;;;;2.07;1.97;;;23.90;65.80;;;;;;5037140;28;20197;-46
2023/08/27 08:16:06;;;;;;;2.80;2.10;;;23.80;65.80;;;;;;5032302;28;20240;-47
2023/08/27 08:18:33;;;;;;;2.80;2.17;;;23.70;67.60;;;;;;5025388;28;20451;-46
2023/08/27 08:21:00;;;;;;;2.57;1.73;;;23.50;66.70;;;;;;5029720;28;20232;-46
2023/08/27 08:23:25;;;;;;;1.83;1.67;;;23.40;67.00;;;;;;5030729;28;20448;-46
2023/08/27 08:25:51;;;;;;;2.83;2.20;;;23.30;67.10;;;;;;5026862;28;20474;-46
2023/08/27 08:28:17;;;;;;;5.30;1.70;;;23.30;67.10;;;;;;5031232;28;20192;-47
2023/08/27 08:30:48;;;;;;;1.90;1.70;;;23.50;66.60;;;;;;5029563;28;20443;-46
2023/08/27 08:33:15;;;;;;;1.60;1.50;;;23.50;66.40;;;;;;5021768;28;20562;-46
2023/08/27 08:35:41;;;;;;;3.13;2.23;;;23.60;66.40;;;;;;5025307;28;20491;-46
2023/08/27 08:38:06;;;;;;;3.13;1.67;;;23.70;66.00;;;;;;5028582;28;20981;-46
2023/08/27 08:40:39;;;;;;;2.03;1.83;;;23.60;65.60;;;;;;5028813;28;20532;-49
2023/08/27 08:43:05;;;;;;;1.93;1.70;;;23.40;66.10;;;;;;5030716;28;20193;-47
2023/08/27 08:45:48;;;;;;;1.80;1.70;;;23.40;66.70;;;;;;5028132;28;20433;-46
2023/08/27 08:48:16;;;;;;;2.27;1.80;;;23.40;66.50;;;;;;5020927;28;20447;-46
2023/08/27 08:50:43;;;;;;;1.90;1.80;;;23.30;66.60;;;;;;5028588;28;20452;-50
2023/08/27 08:53:16;;;;;;;2.00;1.67;;;23.40;67.00;;;;;;5025104;28;20446;-47
2023/08/27 08:55:46;;;;;;;2.40;1.80;;;23.50;66.90;;;;;;5028781;28;20491;-52
2023/08/27 08:58:12;;;;;;;2.00;1.67;;;23.40;66.80;;;;;;5026147;28;20465;-47
2023/08/27 09:00:38;;;;;;;3.13;1.87;;;23.50;66.90;;;;;;5022301;28;20503;-46
2023/08/27 09:03:04;;;;;;;1.83;1.73;;;23.70;66.60;;;;;;5029146;28;20464;-47
2023/08/27 09:05:32;;;;;;;1.77;1.53;;;23.80;66.40;;;;;;5029617;28;20835;-46
2023/08/27 09:07:58;;;;;;;1.77;1.67;;;24.00;66.30;;;;;;5021259;28;20272;-49
2023/08/27 09:10:28;;;;;;;4.30;1.70;;;23.90;64.90;;;;;;5024655;28;20523;-47
2023/08/27 09:12:56;;;;;;;3.23;1.90;;;23.80;65.30;;;;;;5028872;28;20193;-46
2023/08/27 09:15:22;;;;;;;2.50;1.87;;;23.90;65.50;;;;;;5027833;28;20579;-47
2023/08/27 09:17:48;;;;;;;2.43;1.70;;;24.00;65.50;;;;;;5028454;28;20523;-49
2023/08/27 09:20:14;;;;;;;1.43;1.33;;;24.00;65.80;;;;;;5017421;28;20505;-50
2023/08/27 09:22:41;;;;;;;4.30;1.77;;;24.00;65.80;;;;;;5020745;28;20845;-49
2023/08/27 09:25:09;;;;;;;2.40;1.67;;;24.10;66.00;;;;;;5027660;28;20185;-46
2023/08/27 09:27:35;;;;;;;2.23;2.13;;;24.00;66.00;;;;;;5019598;28;20445;-51
2023/08/27 09:30:02;;;;;;;1.60;1.50;;;24.10;66.00;;;;;;5019417;28;20877;-49
2023/08/27 09:32:28;;;;;;;2.23;1.50;;;24.20;65.30;;;;;;5023886;28;21008;-46
2023/08/27 09:34:59;;;;;;;2.10;1.80;;;24.30;64.60;;;;;;5031947;28;20496;-48
2023/08/27 09:37:36;;;;;;;1.77;1.60;;;24.40;64.30;;;;;;5027617;28;20546;-47
2023/08/27 09:40:04;;;;;;;1.63;1.53;;;24.30;63.50;;;;;;5029107;28;20431;-47
2023/08/27 09:42:32;;;;;;;1.60;1.50;;;24.40;63.90;;;;;;5031364;28;20452;-48
2023/08/27 09:44:57;;;;;;;2.13;1.93;;;24.60;64.50;;;;;;5027491;28;20450;-46
2023/08/27 09:47:34;;;;;;;2.87;1.67;;;24.60;64.50;;;;;;5024079;28;20931;-47
2023/08/27 09:50:03;;;;;;;4.33;2.07;;;24.80;64.20;;;;;;5023115;28;20224;-47
2023/08/27 09:52:29;;;;;;;3.50;2.00;;;24.80;63.40;;;;;;5019818;28;20440;-47
2023/08/27 09:54:55;;;;;;;2.40;2.00;;;24.90;63.20;;;;;;5021064;28;20491;-46
2023/08/27 09:57:21;;;;;;;5.77;2.30;;;25.00;62.90;;;;;;5028922;28;20470;-46
2023/08/27 09:59:47;;;;;;;1.70;1.60;;;25.10;63.10;;;;;;5029823;28;22106;-46
2023/08/27 10:02:13;;;;;;;2.40;1.60;;;25.20;62.30;;;;;;5021891;28;20202;-46
2023/08/27 10:04:53;;;;;;;2.53;1.67;;;25.20;61.40;;;;;;5020837;28;20490;-46
2023/08/27 10:07:19;;;;;;;1.80;1.70;;;25.20;59.20;;;;;;5025199;28;20439;-46
2023/08/27 10:09:52;;;;;;;1.20;1.10;;;25.00;61.20;;;;;;5030334;28;20432;-46
2023/08/27 10:12:20;;;;;;;1.70;1.53;;;24.90;60.10;;;;;;5023075;28;20284;-47
2023/08/27 10:14:46;;;;;;;1.70;1.60;;;24.90;60.50;;;;;;5018446;28;20499;-47
2023/08/27 10:17:13;;;;;;;3.17;2.10;;;25.00;61.40;;;;;;5033854;28;20451;-46
2023/08/27 10:19:39;;;;;;;2.07;1.90;;;25.10;60.80;;;;;;5026563;28;20526;-47
2023/08/27 10:22:05;;;;;;;2.20;2.00;;;25.20;60.20;;;;;;5029447;28;20535;-46
2023/08/27 10:24:31;;;;;;;2.60;2.00;;;25.20;60.10;;;;;;5019439;28;20189;-44
2023/08/27 10:26:58;;;;;;;2.10;1.70;;;25.20;60.20;;;;;;5023905;28;20531;-44
2023/08/27 10:29:26;;;;;;;2.17;1.97;;;25.10;60.00;;;;;;5025099;28;20447;-44
2023/08/27 10:31:53;;;;;;;2.00;1.90;;;25.10;60.40;;;;;;5025477;28;20443;-45
2023/08/27 10:34:22;;;;;;;2.23;2.13;;;25.20;59.90;;;;;;5016624;28;20448;-47
2023/08/27 10:36:51;;;;;;;1.80;1.70;;;25.20;60.00;;;;;;5019539;28;20590;-46
2023/08/27 10:39:20;;;;;;;2.97;2.30;;;25.30;60.40;;;;;;5023933;28;20928;-49
2023/08/27 10:41:46;;;;;;;2.97;1.80;;;25.40;61.30;;;;;;5025632;28;20832;-43
2023/08/27 10:44:20;;;;;;;2.17;2.07;;;25.60;60.90;;;;;;5021613;28;20444;-43
2023/08/27 10:47:14;;;;;;;2.20;1.90;;;25.80;60.00;;;;;;5034506;28;20439;-47
2023/08/27 10:49:42;;;;;;;2.67;2.23;;;25.80;59.90;;;;;;5027296;28;20447;-44
2023/08/27 10:52:22;;;;;;;3.00;1.93;;;25.90;60.00;;;;;;5024398;28;22213;-47
2023/08/27 10:54:57;;;;;;;4.10;2.00;;;25.90;59.80;;;;;;5032873;28;20491;-44
2023/08/27 10:57:23;;;;;;;2.10;2.00;;;26.10;59.70;;;;;;5025931;28;20447;-44
2023/08/27 10:59:52;;;;;;;5.20;1.97;;;26.40;59.40;;;;;;5023938;28;20454;-45
2023/08/27 11:02:17;;;;;;;2.57;2.37;;;26.40;58.90;;;;;;5031772;28;20444;-44
2023/08/27 11:04:50;;;;;;;4.30;2.03;;;26.50;58.70;;;;;;5030473;28;20448;-44
2023/08/27 11:07:17;;;;;;;2.77;1.90;;;26.60;58.50;;;;;;5033801;28;20204;-45
2023/08/27 11:09:48;;;;;;;2.93;1.80;;;26.70;58.20;;;;;;5033624;28;20474;-43
2023/08/27 11:12:26;;;;;;;2.43;2.17;;;26.70;58.30;;;;;;5021477;28;20455;-44
2023/08/27 11:14:53;;;;;;;4.60;2.33;;;26.80;58.50;;;;;;5030328;28;20502;-46
2023/08/27 11:17:29;;;;;;;6.27;1.93;;;26.80;57.20;;;;;;5034237;28;20470;-44
2023/08/27 11:19:57;;;;;;;2.13;1.80;;;26.80;56.70;;;;;;5029215;28;20436;-44
2023/08/27 11:22:23;;;;;;;2.60;1.80;;;26.80;56.90;;;;;;5033517;28;20436;-44
2023/08/27 11:24:54;;;;;;;2.13;1.93;;;26.80;57.00;;;;;;5030682;28;20531;-45
2023/08/27 11:27:21;;;;;;;3.40;2.50;;;26.90;56.70;;;;;;5032294;28;20449;-43
2023/08/27 11:29:52;;;;;;;3.63;2.10;;;26.90;56.50;;;;;;5031590;28;20435;-44
2023/08/27 11:32:20;;;;;;;2.23;2.03;;;27.00;56.70;;;;;;5026782;28;20795;-45
2023/08/27 11:34:48;;;;;;;2.30;2.10;;;27.00;57.10;;;;;;5026485;28;20487;-44
2023/08/27 11:37:14;;;;;;;4.20;1.80;;;27.00;57.10;;;;;;5029291;28;20432;-44
2023/08/27 11:39:40;;;;;;;2.70;2.00;;;27.10;56.90;;;;;;5028900;28;20449;-45
2023/08/27 11:42:15;;;;;;;3.83;1.70;;;27.20;56.60;;;;;;5026113;28;20444;-44
2023/08/27 11:44:51;;;;;;;2.20;2.00;;;27.30;56.40;;;;;;5028570;28;20459;-43
2023/08/27 11:47:17;;;;;;;4.40;2.00;;;27.40;56.00;;;;;;5029311;28;20452;-44
2023/08/27 11:49:43;;;;;;;2.80;1.90;;;27.40;55.20;;;;;;5027829;28;20970;-44
2023/08/27 11:52:08;;;;;;;2.90;2.17;;;27.40;55.00;;;;;;5026311;28;20435;-44
2023/08/27 11:54:34;;;;;;;5.20;2.37;;;27.40;55.50;;;;;;5031713;28;20276;-44
2023/08/27 11:57:04;;;;;;;2.83;2.40;;;27.50;55.50;;;;;;5024423;28;20655;-45
2023/08/27 11:59:31;;;;;;;2.60;2.40;;;27.40;55.50;;;;;;5028328;28;20980;-48
2023/08/27 12:01:57;;;;;;;2.07;1.83;;;27.50;55.00;;;;;;5008152;28;20453;-46
2023/08/27 12:04:25;;;;;;;2.63;2.13;;;27.50;54.90;;;;;;5022024;28;20446;-46
2023/08/27 12:07:01;;;;;;;8.33;2.20;;;27.60;55.30;;;;;;5025291;28;20476;-44
2023/08/27 12:09:29;;;;;;;3.40;2.37;;;27.60;55.00;;;;;;5032393;28;20443;-45
2023/08/27 12:12:00;;;;;;;2.67;2.47;;;27.70;55.10;;;;;;5030825;28;20448;-44
2023/08/27 12:14:26;;;;;;;3.20;2.37;;;27.70;54.50;;;;;;5026714;28;20915;-44
2023/08/27 12:16:53;;;;;;;3.23;2.00;;;27.70;54.50;;;;;;5023885;28;20454;-45
2023/08/27 12:19:20;;;;;;;2.10;1.93;;;27.80;54.30;;;;;;5025314;28;20432;-44
2023/08/27 12:22:06;;;;;;;2.97;2.40;;;27.90;54.20;;;;;;5019559;28;20897;-49
2023/08/27 12:24:41;;;;;;;3.07;2.17;;;27.90;54.20;;;;;;5022336;28;20460;-45
2023/08/27 12:27:15;;;;;;;3.70;2.10;;;27.90;54.10;;;;;;5026603;28;20448;-45
2023/08/27 12:29:42;;;;;;;2.70;1.57;;;27.90;54.10;;;;;;5032470;28;20803;-47
2023/08/27 12:32:16;;;;;;;1.83;1.73;;;27.90;53.10;;;;;;5018503;28;20466;-47
2023/08/27 12:34:52;;;;;;;2.30;2.10;;;27.70;53.50;;;;;;5024140;28;20526;-46
2023/08/27 12:37:19;;;;;;;2.70;2.50;;;27.70;54.30;;;;;;5044450;28;20459;-44
2023/08/27 12:39:46;;;;;;;2.33;2.13;;;27.70;53.60;;;;;;5023419;28;20443;-48
2023/08/27 12:42:14;;;;;;;2.10;2.00;;;27.80;54.00;;;;;;5024552;28;20443;-46
2023/08/27 12:44:40;;;;;;;2.27;2.07;;;27.80;53.70;;;;;;5016839;28;20539;-45
2023/08/27 12:47:07;;;;;;;2.27;2.07;;;27.90;53.60;;;;;;5023420;28;20535;-46